Time;durP1;ratioP1;P1;durP2;ratioP2;P2;SDS_P1;SDS_P2;PMS_P1;PMS_P2;Temp;Humidity;BMP_temperature;BMP_pressure;BME280_temperature;BME280_humidity;BME280_pressure;Samples;Min_cycle;Max_cycle;Signal;HPM_P1;HPM_P2
2022/03/15 00:00:20;;;;;;;19.93;12.20;;;;;;;5.20;100.00;102106.06;5064751;28;20218;-75
2022/03/15 00:02:47;;;;;;;18.30;12.10;;;;;;;5.20;100.00;102098.31;5070110;28;20287;-77
2022/03/15 00:05:13;;;;;;;16.73;12.40;;;;;;;5.19;100.00;102105.22;5069610;28;20202;-75
2022/03/15 00:07:40;;;;;;;17.37;12.03;;;;;;;5.19;100.00;102101.72;5069081;28;20237;-76
2022/03/15 00:10:07;;;;;;;17.57;12.30;;;;;;;5.19;100.00;102101.72;5067867;28;20220;-75
2022/03/15 00:12:34;;;;;;;19.60;13.07;;;;;;;5.19;100.00;102105.22;5065013;28;20734;-77
2022/03/15 00:15:02;;;;;;;16.73;11.37;;;;;;;5.20;100.00;102095.72;5069395;28;20285;-75
2022/03/15 00:17:31;;;;;;;18.03;12.23;;;;;;;5.18;100.00;102097.41;5069222;28;20740;-76
2022/03/15 00:19:58;;;;;;;22.07;12.23;;;;;;;5.16;100.00;102094.81;5064842;28;20717;-76
2022/03/15 00:22:24;;;;;;;18.53;12.20;;;;;;;5.16;100.00;102088.75;5067517;28;20198;-77
2022/03/15 00:24:51;;;;;;;19.10;12.10;;;;;;;5.15;100.00;102089.59;5070562;28;20193;-75
2022/03/15 00:27:18;;;;;;;18.27;12.30;;;;;;;5.12;100.00;102090.41;5068144;28;20206;-76
2022/03/15 00:29:46;;;;;;;18.33;12.27;;;;;;;5.11;100.00;102083.50;5065964;28;20757;-76
2022/03/15 00:32:17;;;;;;;17.83;11.97;;;;;;;5.11;100.00;102079.19;5069441;28;20206;-77
2022/03/15 00:34:44;;;;;;;18.20;11.97;;;;;;;5.10;100.00;102069.69;5050848;28;20213;-77
2022/03/15 00:37:11;;;;;;;15.67;11.17;;;;;;;5.09;100.00;102067.94;5049738;28;20228;-77
2022/03/15 00:39:39;;;;;;;17.60;12.23;;;;;;;5.10;100.00;102066.22;5061741;28;20293;-76
2022/03/15 00:42:05;;;;;;;18.90;11.57;;;;;;;5.08;100.00;102065.31;5066714;28;20205;-77
2022/03/15 00:44:32;;;;;;;20.83;12.13;;;;;;;5.06;100.00;102067.00;5068209;28;20202;-75
2022/03/15 00:46:58;;;;;;;16.90;11.40;;;;;;;5.01;100.00;102061.75;5047543;28;20221;-76
2022/03/15 00:49:27;;;;;;;18.43;11.10;;;;;;;4.95;100.00;102069.38;5064185;28;20217;-76
2022/03/15 00:51:54;;;;;;;15.70;10.77;;;;;;;4.91;100.00;102068.47;5064308;28;20741;-76
2022/03/15 00:54:21;;;;;;;15.20;10.60;;;;;;;4.86;100.00;102064.03;5062941;28;20218;-76
2022/03/15 00:56:50;;;;;;;19.50;11.70;;;;;;;4.81;100.00;102068.25;5069176;28;20198;-77
2022/03/15 00:59:16;;;;;;;16.70;10.43;;;;;;;4.77;100.00;102071.59;5068164;28;20577;-75
2022/03/15 01:01:43;;;;;;;18.40;11.27;;;;;;;4.74;100.00;102070.69;5070175;28;20232;-76
2022/03/15 01:04:09;;;;;;;17.50;10.70;;;;;;;4.72;100.00;102074.94;5047935;28;20199;-75
2022/03/15 01:06:38;;;;;;;16.63;10.43;;;;;;;4.71;100.00;102070.66;5048883;28;20192;-76
2022/03/15 01:09:09;;;;;;;18.47;11.23;;;;;;;4.73;100.00;102068.06;5054847;28;20313;-77
2022/03/15 01:11:36;;;;;;;18.27;11.77;;;;;;;4.74;100.00;102064.66;5056382;28;20202;-77
2022/03/15 01:14:02;;;;;;;20.17;11.60;;;;;;;4.76;100.00;102075.03;5074337;28;20747;-76
2022/03/15 01:16:29;;;;;;;20.40;12.60;;;;;;;4.81;100.00;102076.84;5047291;28;20291;-77
2022/03/15 01:18:57;;;;;;;19.93;11.73;;;;;;;4.81;100.00;102073.41;5068137;28;20577;-75
2022/03/15 01:21:26;;;;;;;23.33;12.50;;;;;;;4.82;100.00;102070.88;5050108;28;20235;-77
2022/03/15 01:23:54;;;;;;;20.27;12.03;;;;;;;4.85;100.00;102064.88;5069017;28;20202;-76
2022/03/15 01:26:21;;;;;;;22.10;12.40;;;;;;;4.85;100.00;102070.91;5065313;28;20205;-76
2022/03/15 01:28:49;;;;;;;19.67;12.73;;;;;;;4.87;100.00;102073.53;5050444;28;20221;-77
2022/03/15 01:31:15;;;;;;;22.53;12.30;;;;;;;4.88;100.00;102076.16;5076198;28;20194;-73
2022/03/15 01:33:42;;;;;;;22.27;12.50;;;;;;;4.89;100.00;102071.84;5079189;28;20194;-73
2022/03/15 01:36:09;;;;;;;22.80;12.67;;;;;;;4.91;100.00;102077.94;5079637;28;20225;-73
2022/03/15 01:38:37;;;;;;;21.83;12.10;;;;;;;4.92;100.00;102075.38;5084131;28;20233;-73
2022/03/15 01:41:06;;;;;;;20.83;11.83;;;;;;;4.95;100.00;102073.69;5062185;28;20202;-74
2022/03/15 01:43:34;;;;;;;21.07;12.23;;;;;;;4.93;100.00;102068.50;5097451;28;20207;-74
2022/03/15 01:46:00;;;;;;;19.73;11.93;;;;;;;4.94;100.00;102077.97;5081527;28;20243;-75
2022/03/15 01:48:27;;;;;;;22.53;12.70;;;;;;;4.93;100.00;102077.09;5055906;28;20743;-74
2022/03/15 01:50:54;;;;;;;19.00;11.67;;;;;;;4.92;100.00;102083.13;5064143;28;20198;-76
2022/03/15 01:53:20;;;;;;;22.60;11.83;;;;;;;4.92;100.00;102083.13;5066816;28;20207;-75
2022/03/15 01:55:46;;;;;;;18.97;11.47;;;;;;;4.91;100.00;102083.09;5060622;28;20669;-75
2022/03/15 01:58:14;;;;;;;18.93;11.30;;;;;;;4.90;100.00;102078.75;5051675;28;20916;-76
2022/03/15 02:00:40;;;;;;;18.47;11.40;;;;;;;4.87;100.00;102083.84;5043203;28;20261;-74
2022/03/15 02:03:07;;;;;;;20.80;11.47;;;;;;;4.87;100.00;102079.59;5040801;28;20234;-76
2022/03/15 02:05:33;;;;;;;16.73;10.17;;;;;;;4.83;100.00;102077.75;5062938;28;20211;-76
2022/03/15 02:08:08;;;;;;;18.43;10.97;;;;;;;4.81;100.00;102084.63;5047654;28;20716;-76
2022/03/15 02:10:35;;;;;;;18.13;10.93;;;;;;;4.80;100.00;102084.56;5063102;28;20285;-76
2022/03/15 02:13:01;;;;;;;17.07;11.07;;;;;;;4.79;100.00;102073.38;5067083;28;20205;-76
2022/03/15 02:15:29;;;;;;;20.50;11.27;;;;;;;4.76;100.00;102080.19;5047613;28;20714;-76
2022/03/15 02:17:56;;;;;;;15.83;10.20;;;;;;;4.69;100.00;102082.63;5044160;28;20230;-76
2022/03/15 02:20:24;;;;;;;16.60;9.77;;;;;;;4.64;100.00;102083.38;5076263;28;20218;-75
2022/03/15 02:22:50;;;;;;;19.80;10.80;;;;;;;4.58;100.00;102080.69;5065046;28;20214;-76
2022/03/15 02:25:16;;;;;;;18.03;10.40;;;;;;;4.53;100.00;102084.00;5067771;28;20688;-76
2022/03/15 02:27:43;;;;;;;15.67;9.87;;;;;;;4.45;100.00;102087.25;5048436;28;20227;-77
2022/03/15 02:30:11;;;;;;;16.27;10.60;;;;;;;4.37;100.00;102089.69;5066320;28;20215;-76
2022/03/15 02:32:38;;;;;;;14.13;9.27;;;;;;;4.26;100.00;102083.41;5068482;28;20661;-75
2022/03/15 02:35:06;;;;;;;17.53;9.40;;;;;;;4.17;100.00;102082.34;5063461;28;20202;-75
2022/03/15 02:37:34;;;;;;;17.30;9.67;;;;;;;4.08;100.00;102089.00;5069058;28;20282;-76
2022/03/15 02:40:00;;;;;;;15.93;9.00;;;;;;;3.97;100.00;102099.94;5070714;28;20199;-76
2022/03/15 02:42:27;;;;;;;17.60;9.23;;;;;;;3.86;100.00;102093.63;5068850;28;20666;-76
2022/03/15 02:44:53;;;;;;;13.70;8.50;;;;;;;3.77;100.00;102096.00;5067481;28;20207;-75
2022/03/15 02:47:21;;;;;;;16.03;8.67;;;;;;;3.64;100.00;102099.97;5067056;28;20193;-73
2022/03/15 02:49:48;;;;;;;15.47;9.53;;;;;;;3.55;100.00;102105.75;5064215;28;20914;-74
2022/03/15 02:52:15;;;;;;;15.47;9.13;;;;;;;3.49;100.00;102115.03;5068361;28;20260;-76
2022/03/15 02:54:43;;;;;;;14.67;9.10;;;;;;;3.40;100.00;102113.06;5068147;28;20321;-75
2022/03/15 02:57:10;;;;;;;14.50;8.60;;;;;;;3.34;100.00;102113.78;5070095;28;20238;-77
2022/03/15 02:59:38;;;;;;;15.90;9.03;;;;;;;3.28;100.00;102111.03;5052972;28;20209;-76
2022/03/15 03:02:06;;;;;;;14.97;9.13;;;;;;;3.20;100.00;102116.00;5055352;28;20312;-77
2022/03/15 03:04:32;;;;;;;14.40;9.00;;;;;;;3.12;100.00;102114.03;5066751;28;20210;-76
2022/03/15 03:07:01;;;;;;;17.30;9.63;;;;;;;3.04;100.00;102121.50;5055714;28;20206;-73
2022/03/15 03:09:28;;;;;;;19.23;9.40;;;;;;;2.99;100.00;102115.34;5070702;28;20254;-75
2022/03/15 03:11:56;;;;;;;17.07;10.23;;;;;;;2.96;100.00;102117.88;5063618;28;20584;-76
2022/03/15 03:14:22;;;;;;;21.73;10.00;;;;;;;2.90;100.00;102117.66;5069456;28;20285;-76
2022/03/15 03:16:48;;;;;;;19.27;10.07;;;;;;;2.82;100.00;102120.03;5071197;28;20205;-77
2022/03/15 03:19:15;;;;;;;13.63;9.00;;;;;;;2.73;100.00;102123.22;5066121;28;20226;-75
2022/03/15 03:21:42;;;;;;;19.23;9.13;;;;;;;2.66;100.00;102129.00;5069350;28;20195;-77
2022/03/15 03:24:10;;;;;;;18.03;9.77;;;;;;;2.60;100.00;102123.66;5070440;28;20210;-76
2022/03/15 03:26:40;;;;;;;16.50;9.03;;;;;;;2.50;100.00;102130.22;5067714;28;20664;-75
2022/03/15 03:29:09;;;;;;;14.47;9.27;;;;;;;2.41;100.00;102135.97;5064986;28;20249;-76
2022/03/15 03:31:37;;;;;;;16.60;8.83;;;;;;;2.36;100.00;102141.81;5071156;28;20885;-75
2022/03/15 03:34:04;;;;;;;17.37;9.57;;;;;;;2.33;100.00;102139.13;5050789;28;20202;-76
2022/03/15 03:36:31;;;;;;;17.73;9.27;;;;;;;2.30;100.00;102139.88;5076518;28;20262;-76
2022/03/15 03:38:57;;;;;;;20.50;10.27;;;;;;;2.24;100.00;102137.13;5069548;28;20221;-75
2022/03/15 03:41:24;;;;;;;21.93;10.00;;;;;;;2.19;100.00;102138.69;5068938;28;20561;-76
2022/03/15 03:43:51;;;;;;;17.50;9.57;;;;;;;2.11;100.00;102142.69;5053090;28;20210;-76
2022/03/15 03:46:19;;;;;;;18.10;9.07;;;;;;;2.07;100.00;102131.41;5069836;28;20201;-76
2022/03/15 03:48:46;;;;;;;21.90;10.60;;;;;;;2.02;100.00;102145.81;5070461;28;20588;-74
2022/03/15 03:51:13;;;;;;;21.70;10.50;;;;;;;1.98;100.00;102149.13;5074576;28;20206;-75
2022/03/15 03:53:40;;;;;;;19.53;9.70;;;;;;;1.92;100.00;102154.06;5068272;28;20202;-77
2022/03/15 03:56:07;;;;;;;21.47;10.37;;;;;;;1.83;100.00;102152.94;5067657;28;20213;-74
2022/03/15 03:58:34;;;;;;;18.23;10.03;;;;;;;1.82;100.00;102150.31;5052409;28;20597;-76
2022/03/15 04:01:01;;;;;;;17.63;10.10;;;;;;;1.77;100.00;102157.88;5069482;28;20228;-73
2022/03/15 04:03:31;;;;;;;21.80;10.63;;;;;;;1.75;100.00;102158.66;5067105;28;20203;-75
2022/03/15 04:06:03;;;;;;;17.83;10.20;;;;;;;1.69;100.00;102155.03;5053593;28;20190;-76
2022/03/15 04:08:31;;;;;;;17.53;10.47;;;;;;;1.66;100.00;102156.63;5068347;28;20246;-73
2022/03/15 04:10:58;;;;;;;16.77;9.87;;;;;;;1.64;100.00;102161.72;5058254;28;20237;-76
2022/03/15 04:13:25;;;;;;;22.83;11.03;;;;;;;1.59;100.00;102162.38;5068424;28;20760;-77
2022/03/15 04:15:52;;;;;;;20.37;10.07;;;;;;;1.53;100.00;102152.75;5051251;28;20674;-76
2022/03/15 04:18:18;;;;;;;22.67;10.73;;;;;;;1.51;100.00;102159.50;5066396;28;20229;-75
2022/03/15 04:20:46;;;;;;;21.07;10.90;;;;;;;1.45;100.00;102146.47;5068006;28;20202;-75
2022/03/15 04:23:12;;;;;;;24.07;11.30;;;;;;;1.41;100.00;102147.19;5071534;28;20214;-76
2022/03/15 04:25:39;;;;;;;25.00;12.37;;;;;;;1.37;100.00;102147.88;5054528;28;20195;-76
2022/03/15 04:28:06;;;;;;;26.33;11.53;;;;;;;1.32;100.00;102142.59;5074895;28;20651;-75
2022/03/15 04:30:33;;;;;;;29.47;13.47;;;;;;;1.26;100.00;102135.50;5065682;28;20295;-76
2022/03/15 04:33:01;;;;;;;31.67;13.40;;;;;;;1.24;100.00;102141.41;5069597;28;20208;-77
2022/03/15 04:35:28;;;;;;;24.50;12.30;;;;;;;1.21;100.00;102137.03;5049774;28;20195;-76
2022/03/15 04:37:57;;;;;;;35.47;14.23;;;;;;;1.19;100.00;102130.97;5067853;28;20215;-76
2022/03/15 04:40:24;;;;;;;38.80;17.20;;;;;;;1.19;100.00;102130.97;5049221;28;20206;-76
2022/03/15 04:42:54;;;;;;;34.27;14.50;;;;;;;1.18;100.00;102134.38;5074039;28;20199;-76
2022/03/15 04:45:21;;;;;;;36.47;16.87;;;;;;;1.16;100.00;102132.53;5064210;28;20189;-75
2022/03/15 04:47:48;;;;;;;38.53;17.00;;;;;;;1.10;100.00;102133.22;5067136;28;20243;-76
2022/03/15 04:50:15;;;;;;;33.33;14.73;;;;;;;1.06;100.00;102131.34;5068861;28;20203;-77
2022/03/15 04:52:41;;;;;;;29.90;14.73;;;;;;;0.99;100.00;102122.53;5067003;28;20578;-76
2022/03/15 04:55:09;;;;;;;37.13;17.83;;;;;;;0.93;100.00;102118.06;5069024;28;20209;-76
2022/03/15 04:57:36;;;;;;;31.87;15.07;;;;;;;0.91;100.00;102129.94;5065931;28;20701;-76
2022/03/15 05:00:09;;;;;;;37.00;16.27;;;;;;;0.87;100.00;102128.09;5065476;28;20553;-73
2022/03/15 05:02:35;;;;;;;36.50;15.57;;;;;;;0.81;100.00;102138.13;5071233;28;20210;-76
2022/03/15 05:05:06;;;;;;;37.97;16.70;;;;;;;0.77;100.00;102131.13;5046937;28;20194;-76
2022/03/15 05:07:32;;;;;;;33.17;16.03;;;;;;;0.74;100.00;102138.72;5048026;28;20683;-75
2022/03/15 05:12:43;;;;;;;34.50;16.00;;;;;;;0.67;100.00;102136.72;5048506;28;20210;-76
2022/03/15 05:15:10;;;;;;;27.67;13.67;;;;;;;0.66;100.00;102140.09;5060638;28;20205;-75
2022/03/15 05:17:37;;;;;;;30.20;13.53;;;;;;;0.63;100.00;102127.16;5059899;28;20234;-75
2022/03/15 05:20:04;;;;;;;31.83;15.37;;;;;;;0.64;100.00;102126.34;5062109;28;20229;-74
2022/03/15 05:22:31;;;;;;;35.33;15.83;;;;;;;0.62;100.00;102123.72;5041812;28;20202;-76
2022/03/15 05:24:57;;;;;;;43.23;18.80;;;;;;;0.66;100.00;102119.56;5062782;28;20205;-75
2022/03/15 05:27:24;;;;;;;40.27;17.73;;;;;;;0.66;100.00;102122.13;5059356;28;20217;-76
2022/03/15 05:29:52;;;;;;;35.03;17.87;;;;;;;0.67;100.00;102119.63;5060801;28;20213;-77
2022/03/15 05:32:18;;;;;;;37.77;16.97;;;;;;;0.66;100.00;102112.75;5058810;28;20201;-74
2022/03/15 05:34:45;;;;;;;35.80;15.50;;;;;;;0.67;100.00;102114.50;5042891;28;20206;-76
2022/03/15 05:37:11;;;;;;;28.87;14.27;;;;;;;0.69;100.00;102110.28;5056866;28;20767;-75
2022/03/15 05:39:37;;;;;;;27.27;14.30;;;;;;;0.70;100.00;102119.75;5060245;28;20201;-76
2022/03/15 05:42:05;;;;;;;31.07;14.47;;;;;;;0.70;100.00;102117.19;5057998;28;20233;-73
2022/03/15 05:44:31;;;;;;;33.07;13.97;;;;;;;0.69;100.00;102117.13;5057435;28;20206;-76
2022/03/15 05:46:59;;;;;;;38.40;14.27;;;;;;;0.70;100.00;102113.72;5038538;28;20217;-76
2022/03/15 05:49:25;;;;;;;28.77;12.77;;;;;;;0.72;100.00;102117.22;5039620;28;20686;-77
2022/03/15 05:51:51;;;;;;;31.50;14.30;;;;;;;0.79;100.00;102110.63;5059916;28;20241;-76
2022/03/15 05:54:18;;;;;;;29.70;15.23;;;;;;;0.82;100.00;102111.63;5062606;28;20191;-74
2022/03/15 05:56:45;;;;;;;33.30;14.07;;;;;;;0.84;100.00;102103.97;5062973;28;20202;-76
2022/03/15 05:59:11;;;;;;;30.73;14.10;;;;;;;0.89;100.00;102102.47;5062397;28;20218;-76
2022/03/15 06:01:38;;;;;;;34.20;13.70;;;;;;;0.98;100.00;102109.63;5059832;28;20210;-74
2022/03/15 06:04:07;;;;;;;29.47;14.73;;;;;;;1.03;100.00;102108.13;5064280;28;20230;-76
2022/03/15 06:06:34;;;;;;;30.07;14.60;;;;;;;1.10;100.00;102110.09;5065754;28;20199;-76
2022/03/15 06:09:00;;;;;;;39.57;15.47;;;;;;;1.18;100.00;102105.22;5043665;28;20238;-77
2022/03/15 06:11:28;;;;;;;37.33;15.43;;;;;;;1.27;100.00;102114.13;5046515;28;20223;-76
2022/03/15 06:13:54;;;;;;;41.37;18.90;;;;;;;1.35;100.00;102116.09;5064069;28;20210;-76
2022/03/15 06:16:21;;;;;;;47.63;21.47;;;;;;;1.43;100.00;102117.25;5066425;28;20194;-77
2022/03/15 06:18:47;;;;;;;73.57;32.93;;;;;;;1.45;100.00;102113.91;5065649;28;20221;-75
2022/03/15 06:21:15;;;;;;;174.20;55.40;;;;;;;1.52;100.00;102122.72;5065217;28;20199;-76
2022/03/15 06:23:41;;;;;;;171.37;50.43;;;;;;;1.62;100.00;102127.38;5064973;28;20194;-75
2022/03/15 06:26:08;;;;;;;217.63;54.77;;;;;;;1.68;100.00;102122.41;5064261;28;20198;-75
2022/03/15 06:28:35;;;;;;;217.27;51.03;;;;;;;1.77;100.00;102114.13;5064090;28;20317;-76
2022/03/15 06:31:02;;;;;;;130.57;34.97;;;;;;;1.80;100.00;102127.09;5065851;28;20454;-77
2022/03/15 06:33:29;;;;;;;146.17;41.80;;;;;;;1.84;100.00;102128.09;5062811;28;20240;-76
2022/03/15 06:35:56;;;;;;;216.23;53.83;;;;;;;1.91;100.00;102136.88;5050634;28;21006;-76
2022/03/15 06:38:24;;;;;;;122.93;38.30;;;;;;;1.98;100.00;102131.13;5062390;28;20575;-76
2022/03/15 06:40:52;;;;;;;84.13;30.40;;;;;;;2.04;100.00;102137.34;5065824;28;20198;-76
2022/03/15 06:43:19;;;;;;;64.10;24.10;;;;;;;2.12;100.00;102127.31;5066408;28;20582;-77
2022/03/15 06:45:46;;;;;;;74.10;28.20;;;;;;;2.22;100.00;102128.50;5069291;28;20222;-76
2022/03/15 06:48:14;;;;;;;57.10;22.60;;;;;;;2.31;100.00;102126.19;5063030;28;20312;-75
2022/03/15 06:50:41;;;;;;;61.10;23.80;;;;;;;2.38;100.00;102130.72;5048873;28;20304;-76
2022/03/15 06:53:07;;;;;;;61.70;21.20;;;;;;;2.46;100.00;102124.13;5064933;28;20768;-76
2022/03/15 06:55:35;;;;;;;44.30;18.37;;;;;;;2.57;100.00;102127.03;5048806;28;20217;-74
2022/03/15 06:58:02;;;;;;;57.00;21.13;;;;;;;2.64;100.00;102131.53;5061557;28;20236;-77
2022/03/15 07:00:28;;;;;;;44.97;18.87;;;;;;;2.73;100.00;102127.50;5063041;28;20668;-74
2022/03/15 07:02:55;;;;;;;42.60;17.87;;;;;;;2.81;100.00;102129.47;5060351;28;20210;-74
2022/03/15 07:05:21;;;;;;;41.17;19.20;;;;;;;2.91;100.00;102117.72;5051077;28;20213;-76
2022/03/15 07:07:48;;;;;;;39.70;16.67;;;;;;;2.99;100.00;102123.09;5059609;28;20234;-75
2022/03/15 07:10:17;;;;;;;44.97;19.13;;;;;;;3.07;100.00;102131.06;5065614;28;20202;-75
2022/03/15 07:12:47;;;;;;;42.63;16.93;;;;;;;3.16;100.00;102123.56;5061759;28;20229;-73
2022/03/15 07:15:14;;;;;;;41.63;17.93;;;;;;;3.25;100.00;102123.81;5073642;28;20202;-74
2022/03/15 07:17:49;;;;;;;45.83;18.83;;;;;;;3.35;100.00;102128.41;5065163;28;20218;-74
2022/03/15 07:20:16;;;;;;;43.97;17.30;;;;;;;3.44;100.00;102116.63;5050659;28;20206;-74
2022/03/15 07:22:42;;;;;;;46.67;19.33;;;;;;;3.54;100.00;102114.31;5066371;28;20227;-75
2022/03/15 07:25:10;;;;;;;41.33;17.43;;;;;;;3.68;100.00;102121.56;5070542;28;20560;-74
2022/03/15 07:27:36;;;;;;;39.00;17.17;;;;;;;3.79;100.00;102122.69;5066937;28;20237;-76
2022/03/15 07:30:04;;;;;;;40.37;17.77;;;;;;;3.91;100.00;102122.16;5068940;28;20199;-76
2022/03/15 07:32:31;;;;;;;40.03;17.93;;;;;;;4.01;100.00;102126.72;5063526;28;20693;-75
2022/03/15 07:34:58;;;;;;;45.13;17.87;;;;;;;4.07;100.00;102121.69;5071158;28;20201;-76
2022/03/15 07:37:24;;;;;;;51.07;18.97;;;;;;;4.16;100.00;102118.44;5062954;28;20215;-73
2022/03/15 07:39:51;;;;;;;46.97;19.00;;;;;;;4.33;100.00;102118.88;5067285;28;20565;-76
2022/03/15 07:42:19;;;;;;;47.87;18.77;;;;;;;4.43;100.00;102117.34;5063483;28;20198;-77
2022/03/15 07:44:46;;;;;;;43.53;17.77;;;;;;;4.52;100.00;102118.44;5048813;28;20209;-75
2022/03/15 07:47:14;;;;;;;47.73;18.23;;;;;;;4.63;100.00;102116.09;5048409;28;20203;-75
2022/03/15 07:49:43;;;;;;;46.97;18.40;;;;;;;4.68;100.00;102113.63;5050059;28;20241;-76
2022/03/15 07:52:10;;;;;;;65.63;23.83;;;;;;;4.81;100.00;102113.03;5064262;28;20955;-76
2022/03/15 07:54:37;;;;;;;55.27;20.50;;;;;;;4.89;100.00;102110.59;5064730;28;20198;-75
2022/03/15 07:57:04;;;;;;;61.40;23.63;;;;;;;5.02;100.00;102112.63;5069198;28;20222;-76
2022/03/15 07:59:30;;;;;;;51.93;20.07;;;;;;;5.10;100.00;102108.47;5069946;28;20846;-76
2022/03/15 08:01:57;;;;;;;52.27;20.60;;;;;;;5.21;100.00;102113.88;5046962;28;20206;-76
2022/03/15 08:04:24;;;;;;;54.53;21.17;;;;;;;5.28;100.00;102123.47;5066300;28;20206;-76
2022/03/15 08:06:51;;;;;;;52.07;21.33;;;;;;;5.44;100.00;102121.19;5063970;28;20209;-77
2022/03/15 08:09:17;;;;;;;44.93;20.03;;;;;;;5.55;100.00;102114.50;5067564;28;20231;-77
2022/03/15 08:11:45;;;;;;;47.83;20.27;;;;;;;5.63;100.00;102112.06;5068764;28;20226;-75
2022/03/15 08:14:12;;;;;;;46.13;19.83;;;;;;;5.67;100.00;102119.91;5067540;28;20212;-77
2022/03/15 08:16:38;;;;;;;49.20;20.57;;;;;;;5.73;100.00;102113.94;5049114;28;20205;-76
2022/03/15 08:19:05;;;;;;;42.30;18.07;;;;;;;5.87;100.00;102116.78;5066219;28;20208;-77
2022/03/15 08:21:36;;;;;;;47.87;19.60;;;;;;;5.96;100.00;102113.50;5066042;28;20199;-76
2022/03/15 08:24:02;;;;;;;36.73;18.33;;;;;;;6.07;100.00;102117.16;5049890;28;20203;-77
2022/03/15 08:26:28;;;;;;;37.77;17.07;;;;;;;6.21;100.00;102110.50;5046962;28;20223;-76
2022/03/15 08:28:55;;;;;;;36.30;16.93;;;;;;;6.32;100.00;102102.88;5062083;28;20220;-77
2022/03/15 08:31:21;;;;;;;32.37;15.90;;;;;;;6.41;100.00;102105.59;5067686;28;20557;-73
2022/03/15 08:33:48;;;;;;;25.97;14.83;;;;;;;6.56;100.00;102112.75;5069815;28;20652;-77
2022/03/15 08:36:14;;;;;;;27.27;13.90;;;;;;;6.65;100.00;102104.22;5066706;28;20272;-76
2022/03/15 08:38:43;;;;;;;28.73;13.17;;;;;;;6.74;100.00;102106.94;5064805;28;20229;-77
2022/03/15 08:41:11;;;;;;;22.87;13.03;;;;;;;6.82;100.00;102112.19;5064867;28;20197;-77
2022/03/15 08:43:37;;;;;;;18.73;11.37;;;;;;;6.90;100.00;102110.59;5066871;28;20202;-77
2022/03/15 08:46:04;;;;;;;21.87;11.37;;;;;;;6.96;100.00;102105.47;5064441;28;20203;-76
2022/03/15 08:48:31;;;;;;;17.70;10.77;;;;;;;7.01;100.00;102100.34;5047656;28;20863;-75
2022/03/15 08:51:00;;;;;;;18.13;10.40;;;;;;;7.16;100.00;102094.50;5064024;28;20243;-77
2022/03/15 08:53:26;;;;;;;15.67;9.33;;;;;;;7.26;100.00;102098.91;5065075;28;20283;-77
2022/03/15 08:55:55;;;;;;;13.97;8.03;;;;;;;7.36;100.00;102097.28;5065440;28;20307;-75
2022/03/15 08:58:21;;;;;;;16.30;8.70;;;;;;;7.50;100.00;102094.84;5040980;28;20226;-76
2022/03/15 09:00:49;;;;;;;13.20;9.13;;;;;;;7.58;100.00;102091.47;5066995;28;20226;-77
2022/03/15 09:03:15;;;;;;;14.33;8.80;;;;;;;7.70;100.00;102084.63;5065432;28;20199;-74
2022/03/15 09:05:42;;;;;;;14.10;8.77;;;;;;;7.80;100.00;102085.59;5067531;28;20202;-76
2022/03/15 09:08:08;;;;;;;15.07;9.03;;;;;;;7.89;100.00;102083.06;5065550;28;20222;-76
2022/03/15 09:10:35;;;;;;;13.90;8.90;;;;;;;8.00;100.00;102078.81;5070487;28;20201;-77
2022/03/15 09:13:03;;;;;;;14.53;9.70;;;;;;;8.10;100.00;102077.19;5070522;28;20719;-77
2022/03/15 09:15:30;;;;;;;15.77;9.97;;;;;;;8.18;100.00;102083.31;5049538;28;20619;-74
2022/03/15 09:17:57;;;;;;;14.87;9.73;;;;;;;8.23;100.00;102083.31;5064554;28;20826;-77
2022/03/15 09:20:24;;;;;;;15.20;10.43;;;;;;;8.29;100.00;102079.03;5065166;28;20200;-77
2022/03/15 09:22:50;;;;;;;19.33;10.70;;;;;;;8.45;100.00;102082.63;5064107;28;20210;-77
2022/03/15 09:25:18;;;;;;;20.47;11.00;;;;;;;8.57;100.00;102080.97;5067182;28;20205;-75
2022/03/15 09:27:46;;;;;;;19.67;11.33;;;;;;;8.69;100.00;102075.84;5064861;28;20231;-76
2022/03/15 09:30:15;;;;;;;19.87;11.67;;;;;;;8.79;100.00;102071.53;5066270;28;20253;-75
2022/03/15 09:32:42;;;;;;;21.80;12.13;;;;;;;8.89;100.00;102073.31;5064473;28;20226;-77
2022/03/15 09:35:09;;;;;;;25.90;15.10;;;;;;;8.96;100.00;102082.88;5044872;28;20210;-76
2022/03/15 09:37:36;;;;;;;24.57;14.00;;;;;;;9.04;100.00;102078.59;5045470;28;20846;-75
2022/03/15 09:40:08;;;;;;;24.03;13.20;;;;;;;9.14;100.00;102076.00;5065821;28;20220;-75
2022/03/15 09:42:36;;;;;;;16.67;11.37;;;;;;;9.19;100.00;102076.91;5060251;28;20197;-74
2022/03/15 09:45:05;;;;;;;18.93;12.47;;;;;;;9.29;100.00;102074.31;5067797;28;20220;-76
2022/03/15 09:47:35;;;;;;;20.13;12.17;;;;;;;9.24;100.00;102075.16;5063765;28;20224;-75
2022/03/15 09:50:05;;;;;;;20.60;12.03;;;;;;;9.43;100.00;102068.28;5077002;28;20205;-74
2022/03/15 09:52:31;;;;;;;21.23;12.00;;;;;;;9.55;100.00;102062.19;5070503;28;20770;-74
2022/03/15 09:54:58;;;;;;;21.33;12.27;;;;;;;9.74;100.00;102070.91;5076244;28;20516;-74
2022/03/15 09:57:28;;;;;;;19.97;13.73;;;;;;;9.82;99.75;102067.44;5048726;28;20780;-75
2022/03/15 09:59:59;;;;;;;24.00;16.07;;;;;;;9.99;99.77;102064.81;5078286;28;20201;-72
2022/03/15 10:02:26;;;;;;;23.57;15.47;;;;;;;10.08;99.54;102060.44;5083677;28;20205;-74
2022/03/15 10:04:53;;;;;;;25.00;15.87;;;;;;;10.17;98.13;102063.94;5075389;28;20205;-76
2022/03/15 10:07:20;;;;;;;30.13;17.17;;;;;;;10.28;96.20;102061.31;5066092;28;20560;-74
2022/03/15 10:09:46;;;;;;;25.77;14.43;;;;;;;10.35;95.51;102056.97;5070364;28;20194;-74
2022/03/15 10:12:13;;;;;;;21.47;13.77;;;;;;;10.41;95.96;102062.16;5066871;28;20206;-76
2022/03/15 10:14:45;;;;;;;23.53;14.87;;;;;;;10.42;94.80;102061.31;5062923;28;20202;-76
2022/03/15 10:17:14;;;;;;;28.50;17.17;;;;;;;10.49;94.93;102054.34;5078619;28;20206;-75
2022/03/15 10:19:50;;;;;;;27.17;15.40;;;;;;;10.65;93.43;102052.53;5065706;28;20588;-76
2022/03/15 10:22:21;;;;;;;25.87;14.17;;;;;;;10.76;91.98;102046.41;5064928;28;20202;-77
2022/03/15 10:24:47;;;;;;;25.27;13.90;;;;;;;10.85;92.30;102042.88;5046190;28;20211;-76
2022/03/15 10:27:16;;;;;;;26.33;15.37;;;;;;;10.97;92.44;102041.94;5065843;28;20237;-76
2022/03/15 10:29:43;;;;;;;30.63;18.30;;;;;;;11.04;91.17;102042.78;5061363;28;20215;-74
2022/03/15 10:32:10;;;;;;;24.63;15.20;;;;;;;11.09;89.58;102051.47;5042757;28;20648;-76
2022/03/15 10:34:37;;;;;;;31.33;17.17;;;;;;;11.22;89.82;102031.38;5063534;28;20206;-76
2022/03/15 10:37:04;;;;;;;31.37;17.40;;;;;;;11.33;88.50;102034.78;5064334;28;20205;-76
2022/03/15 10:39:32;;;;;;;25.30;15.67;;;;;;;11.41;88.56;102034.72;5065079;28;20226;-76
2022/03/15 10:42:01;;;;;;;29.13;16.07;;;;;;;11.49;86.58;102043.38;5062024;28;20196;-74
2022/03/15 10:44:32;;;;;;;24.97;14.13;;;;;;;11.57;86.58;102036.34;5063137;28;20206;-76
2022/03/15 10:47:02;;;;;;;24.00;14.13;;;;;;;11.63;84.01;102041.53;5060495;28;20217;-75
2022/03/15 10:49:30;;;;;;;22.97;12.60;;;;;;;11.64;84.68;102035.41;5066170;28;20594;-74
2022/03/15 10:51:57;;;;;;;22.80;13.80;;;;;;;11.58;84.90;102032.00;5045593;28;20404;-76
2022/03/15 10:54:26;;;;;;;24.67;13.87;;;;;;;11.73;84.39;102040.59;5047878;28;20210;-76
2022/03/15 10:56:56;;;;;;;21.57;13.73;;;;;;;11.79;83.54;102038.81;5061713;28;20236;-76
2022/03/15 10:59:23;;;;;;;24.87;13.87;;;;;;;11.89;83.32;102027.34;5070628;28;20226;-75
2022/03/15 11:01:50;;;;;;;26.73;13.73;;;;;;;11.95;78.89;102034.34;5060958;28;20206;-74
2022/03/15 11:04:18;;;;;;;24.20;13.53;;;;;;;11.99;80.95;102028.19;5063461;28;20216;-76
2022/03/15 11:06:46;;;;;;;23.53;13.53;;;;;;;12.04;81.49;102015.94;5063774;28;20747;-76
2022/03/15 11:09:22;;;;;;;19.77;12.87;;;;;;;12.17;80.07;102024.50;5059973;28;20226;-76
2022/03/15 11:11:58;;;;;;;22.20;13.43;;;;;;;12.18;79.80;102026.25;5067426;28;20332;-75